Time;durP1;ratioP1;P1;durP2;ratioP2;P2;SDS_P1;SDS_P2;PMS_P1;PMS_P2;Temp;Humidity;BMP_temperature;BMP_pressure;BME280_temperature;BME280_humidity;BME280_pressure;Samples;Min_cycle;Max_cycle;Signal;HPM_P1;HPM_P2
2022/09/07 00:00:25;;;;;;;68.47;65.38;;;;;;;25.57;44.80;101149.16;5050672;28;20033;-75
2022/09/07 00:02:50;;;;;;;69.60;66.40;;;;;;;25.54;44.55;101154.56;5024171;28;20495;-74
2022/09/07 00:05:15;;;;;;;69.82;66.63;;;;;;;25.51;44.87;101161.56;5048875;28;20495;-75
2022/09/07 00:07:41;;;;;;;65.10;62.05;;;;;;;25.47;44.86;101161.41;5049738;28;20211;-73
2022/09/07 00:10:07;;;;;;;64.72;61.38;;;;;;;25.45;44.73;101151.81;5034386;28;20483;-74
2022/09/07 00:12:32;;;;;;;71.18;67.88;;;;;;;25.42;44.91;101152.50;5051636;28;20060;-74
2022/09/07 00:14:57;;;;;;;68.60;65.30;;;;;;;25.40;45.17;101155.63;5051868;28;20072;-75
2022/09/07 00:17:23;;;;;;;65.53;62.33;;;;;;;25.37;44.71;101141.63;5050619;28;20048;-76
2022/09/07 00:19:48;;;;;;;68.60;65.40;;;;;;;25.34;45.15;101143.09;5051776;28;20041;-74
2022/09/07 00:22:14;;;;;;;70.53;67.30;;;;;;;25.32;44.66;101145.38;5051372;28;20136;-74
2022/09/07 00:24:39;;;;;;;66.15;63.05;;;;;;;25.31;44.92;101151.28;5056992;28;20062;-73
2022/09/07 00:27:04;;;;;;;66.53;63.42;;;;;;;25.27;44.72;101145.56;5052867;28;20123;-73
2022/09/07 00:29:30;;;;;;;67.30;64.05;;;;;;;25.23;44.67;101141.88;5048436;28;20069;-73
2022/09/07 00:31:55;;;;;;;66.28;63.13;;;;;;;25.21;44.87;101141.38;5034465;28;20381;-73
2022/09/07 00:34:20;;;;;;;67.63;64.32;;;;;;;25.18;44.88;101137.34;5049623;28;20113;-73
2022/09/07 00:36:46;;;;;;;65.10;61.95;;;;;;;25.16;45.13;101130.47;5036466;28;20369;-73
2022/09/07 00:39:11;;;;;;;68.55;65.20;;;;;;;25.13;44.96;101136.69;5045810;28;20033;-74
2022/09/07 00:41:36;;;;;;;69.22;65.95;;;;;;;25.10;44.68;101148.38;5051187;28;20056;-75
2022/09/07 00:44:39;;;;;;;71.03;67.72;;;;;;;25.08;45.09;101142.41;5051752;28;20055;-73
2022/09/07 00:47:28;;;;;;;67.93;64.63;;;;;;;25.04;44.69;101147.75;5040190;28;20481;-73
2022/09/07 00:49:59;;;;;;;64.40;61.20;;;;;;;25.01;44.77;101142.91;5052098;28;20040;-74
2022/09/07 00:52:27;;;;;;;69.00;65.70;;;;;;;24.97;45.22;101134.47;5039592;28;20029;-73
2022/09/07 00:54:57;;;;;;;65.65;62.47;;;;;;;24.94;45.18;101126.81;5031968;28;20392;-75
2022/09/07 00:57:22;;;;;;;64.75;61.60;;;;;;;24.91;44.99;101127.50;5042986;28;20029;-74
2022/09/07 00:59:51;;;;;;;64.28;61.00;;;;;;;24.90;44.95;101125.88;5034033;28;20051;-74
2022/09/07 01:02:17;;;;;;;64.85;61.55;;;;;;;24.87;45.37;101123.75;5066025;28;20021;-74
2022/09/07 01:04:45;;;;;;;63.60;60.60;;;;;;;24.83;45.21;101120.84;5041161;28;20533;-74
2022/09/07 01:07:11;;;;;;;64.10;60.92;;;;;;;24.82;44.99;101126.69;5047057;28;20037;-74
2022/09/07 01:09:38;;;;;;;64.72;61.40;;;;;;;24.79;45.08;101130.13;5042081;28;20087;-73
2022/09/07 01:12:05;;;;;;;64.10;60.95;;;;;;;24.75;44.96;101130.00;5043046;28;20083;-74
2022/09/07 01:14:41;;;;;;;64.75;61.70;;;;;;;24.73;45.59;101129.50;5041204;28;20090;-74
2022/09/07 01:17:31;;;;;;;61.67;58.67;;;;;;;24.71;45.30;101125.44;5051791;28;20139;-74
2022/09/07 01:20:11;;;;;;;65.70;62.47;;;;;;;24.68;45.58;101124.16;5033400;28;20462;-74
2022/09/07 01:22:54;;;;;;;68.95;65.65;;;;;;;24.64;45.46;101117.66;5044265;28;20471;-74
2022/09/07 01:26:15;;;;;;;65.03;61.72;;;;;;;24.60;45.77;101120.28;5050623;28;20195;-73
2022/09/07 01:28:41;;;;;;;64.18;60.97;;;;;;;24.57;45.62;101101.59;4972873;28;20042;-74
2022/09/07 01:31:12;;;;;;;61.08;58.17;;;;;;;24.54;45.26;101102.25;5036971;28;20397;-74
2022/09/07 01:34:04;;;;;;;67.25;63.88;;;;;;;24.51;45.70;101104.84;5046335;28;20123;-74
2022/09/07 01:36:46;;;;;;;64.00;60.83;;;;;;;24.49;45.53;101110.69;5051370;28;20466;-75
2022/09/07 01:39:11;;;;;;;60.70;57.80;;;;;;;24.47;45.36;101123.22;5034853;28;20029;-74
2022/09/07 01:42:03;;;;;;;61.35;58.45;;;;;;;24.44;45.54;101130.16;5047696;28;20121;-74
2022/09/07 01:44:39;;;;;;;63.67;60.65;;;;;;;24.41;45.56;101130.81;5048411;28;20041;-73
2022/09/07 01:47:09;;;;;;;60.35;57.15;;;;;;;24.38;46.04;101131.50;5041716;28;20028;-74
2022/09/07 01:49:44;;;;;;;61.88;58.90;;;;;;;24.35;46.05;101130.19;5043612;28;20495;-76
2022/09/07 01:52:35;;;;;;;62.17;59.10;;;;;;;24.34;46.19;101136.88;5050243;28;20082;-73
2022/09/07 01:55:18;;;;;;;64.75;61.65;;;;;;;24.30;46.03;101129.56;5032853;28;20469;-74
2022/09/07 01:58:09;;;;;;;60.72;57.60;;;;;;;24.28;45.80;101131.81;5038742;28;20495;-73
2022/09/07 02:00:38;;;;;;;58.35;55.35;;;;;;;24.24;45.99;101126.16;5032587;28;20045;-73
2022/09/07 02:03:13;;;;;;;59.85;56.75;;;;;;;24.23;46.17;101132.78;5048218;28;20044;-73
2022/09/07 02:05:57;;;;;;;60.63;57.53;;;;;;;24.20;45.92;101136.22;5038917;28;20037;-73
2022/09/07 02:08:27;;;;;;;57.83;54.92;;;;;;;24.17;46.17;101137.69;5038547;28;20112;-74
2022/09/07 02:11:48;;;;;;;60.65;57.75;;;;;;;24.14;46.08;101141.09;5049592;28;20033;-74
2022/09/07 02:14:21;;;;;;;60.47;57.25;;;;;;;24.10;46.06;101129.06;5002363;28;20505;-73
2022/09/07 02:16:57;;;;;;;58.95;56.15;;;;;;;24.09;46.32;101126.63;5042532;28;20085;-73
2022/09/07 02:19:27;;;;;;;57.67;54.88;;;;;;;24.06;46.40;101128.09;5042579;28;20116;-74
2022/09/07 02:22:02;;;;;;;59.38;56.40;;;;;;;24.03;45.97;101131.50;5056552;28;20060;-75
2022/09/07 02:24:34;;;;;;;62.60;59.50;;;;;;;24.01;46.22;101125.50;5030059;28;20409;-74
2022/09/07 02:27:06;;;;;;;58.15;55.20;;;;;;;23.98;46.19;101124.19;5041298;28;20033;-73
2022/09/07 02:29:31;;;;;;;60.70;57.70;;;;;;;23.97;46.61;101127.28;5032626;28;20041;-72
2022/09/07 02:31:57;;;;;;;60.33;57.38;;;;;;;23.94;46.13;101119.66;5062228;28;20029;-73
2022/09/07 02:34:22;;;;;;;60.22;57.33;;;;;;;23.92;46.22;101125.50;5040694;28;20496;-73
2022/09/07 02:36:51;;;;;;;60.90;57.67;;;;;;;23.90;46.66;101135.22;5050113;28;20036;-73
2022/09/07 02:39:17;;;;;;;;;;;;;;;23.87;46.06;101122.91;5050522;28;20052;-73
2022/09/07 02:41:44;;;;;;;59.03;56.08;;;;;;;23.85;46.34;101129.88;5049073;28;19955;-74
2022/09/07 02:44:18;;;;;;;55.40;52.60;;;;;;;23.82;46.48;101127.78;5039725;28;20083;-74
2022/09/07 02:47:05;;;;;;;61.63;58.58;;;;;;;23.81;46.27;101117.84;5036204;28;20031;-74
2022/09/07 02:49:31;;;;;;;58.17;55.28;;;;;;;23.77;46.54;101125.97;5031437;28;20072;-74
2022/09/07 02:52:35;;;;;;;61.58;58.00;;;;;;;23.74;46.31;101130.19;5048990;28;20131;-74
2022/09/07 02:55:01;;;;;;;57.63;54.60;;;;;;;23.71;46.78;101136.31;5050432;28;20037;-74
2022/09/07 02:58:00;;;;;;;56.17;53.45;;;;;;;23.70;46.33;101144.91;5048749;28;20076;-74
2022/09/07 03:00:30;;;;;;;56.95;54.15;;;;;;;23.67;46.35;101148.31;5050446;28;20108;-74
2022/09/07 03:03:05;;;;;;;59.00;56.10;;;;;;;23.64;46.44;101155.28;5040356;28;20033;-73
2022/09/07 03:05:57;;;;;;;60.33;57.40;;;;;;;23.62;46.61;101151.22;5049814;28;20544;-73
2022/09/07 03:08:35;;;;;;;60.05;57.05;;;;;;;23.59;46.89;101151.88;5079224;28;20030;-73
2022/09/07 03:11:04;;;;;;;58.17;55.13;;;;;;;23.57;46.63;101157.69;5033163;28;20033;-73
2022/09/07 03:13:29;;;;;;;54.72;51.75;;;;;;;23.54;46.69;101167.44;5031512;28;20068;-73
2022/09/07 03:15:55;;;;;;;57.63;54.72;;;;;;;23.52;46.84;101164.16;5030973;28;20037;-73
2022/09/07 03:18:21;;;;;;;55.97;53.08;;;;;;;23.50;47.00;101149.06;5031365;28;20500;-73
2022/09/07 03:20:47;;;;;;;57.90;54.88;;;;;;;23.48;46.77;101154.09;5066086;28;20037;-73
2022/09/07 03:23:12;;;;;;;57.95;55.15;;;;;;;23.45;46.63;101144.53;5031206;28;20029;-73
2022/09/07 03:25:38;;;;;;;60.33;57.33;;;;;;;23.44;47.04;101144.84;5030884;28;20057;-73
2022/09/07 03:28:03;;;;;;;60.70;57.70;;;;;;;23.42;46.73;101125.88;5049039;28;20504;-72
2022/09/07 03:30:29;;;;;;;58.83;55.83;;;;;;;23.40;46.88;101114.34;5082441;28;20041;-73
2022/09/07 03:32:55;;;;;;;61.95;58.83;;;;;;;23.39;46.89;101117.44;5035740;28;20033;-73
2022/09/07 03:35:20;;;;;;;59.38;56.17;;;;;;;23.36;46.47;101116.13;5050658;28;20055;-74
2022/09/07 03:37:46;;;;;;;56.08;53.30;;;;;;;23.34;46.61;101143.19;5049373;28;20492;-74
2022/09/07 03:40:13;;;;;;;57.38;54.55;;;;;;;23.30;46.46;101154.03;5050690;28;20041;-73
2022/09/07 03:42:40;;;;;;;55.47;52.58;;;;;;;23.29;46.64;101133.13;5034515;28;20420;-74
2022/09/07 03:45:06;;;;;;;59.10;56.17;;;;;;;23.27;46.92;101131.81;5029754;28;20124;-74
2022/09/07 03:47:38;;;;;;;57.60;54.75;;;;;;;23.25;46.76;101134.09;5046755;28;20036;-74
2022/09/07 03:50:05;;;;;;;56.28;53.38;;;;;;;23.22;46.90;101130.03;5041374;28;20041;-74
2022/09/07 03:52:30;;;;;;;54.28;51.38;;;;;;;23.20;46.50;101118.50;5052503;28;20120;-74
2022/09/07 03:54:56;;;;;;;56.40;53.67;;;;;;;23.19;46.94;101121.59;5051353;28;20210;-73
2022/09/07 03:57:21;;;;;;;57.42;54.42;;;;;;;23.16;46.97;101117.53;5035312;28;20103;-74
2022/09/07 03:59:48;;;;;;;56.72;53.88;;;;;;;23.15;46.77;101113.13;5051824;28;20524;-73
2022/09/07 04:02:14;;;;;;;54.88;52.13;;;;;;;23.12;46.87;101113.78;5053835;28;20481;-74
2022/09/07 04:04:41;;;;;;;56.75;53.95;;;;;;;23.10;46.65;101127.06;5053231;28;20033;-74
2022/09/07 04:07:07;;;;;;;57.60;54.65;;;;;;;23.09;46.76;101114.41;5053021;28;20029;-72
2022/09/07 04:09:32;;;;;;;56.60;53.80;;;;;;;23.06;46.96;101115.88;5051831;28;20039;-73
2022/09/07 04:11:58;;;;;;;56.65;53.65;;;;;;;23.04;47.03;101100.78;5052687;28;20117;-73
2022/09/07 04:14:23;;;;;;;56.25;53.45;;;;;;;23.02;46.79;101090.06;5043789;28;20401;-73
2022/09/07 04:16:49;;;;;;;58.33;55.33;;;;;;;23.01;47.23;101090.41;5033256;28;20406;-74
2022/09/07 04:19:15;;;;;;;55.45;52.65;;;;;;;22.98;47.31;101091.84;5043654;28;20029;-74
2022/09/07 04:21:43;;;;;;;57.65;54.75;;;;;;;22.97;47.25;101089.38;5048615;28;20477;-75
2022/09/07 04:24:08;;;;;;;57.45;54.53;;;;;;;22.96;46.94;101085.00;5052483;28;20057;-74
2022/09/07 04:26:35;;;;;;;54.63;51.72;;;;;;;22.94;46.97;101081.75;5052653;28;20040;-74
2022/09/07 04:29:01;;;;;;;58.42;55.42;;;;;;;22.92;47.23;101093.06;5050766;28;20029;-74
2022/09/07 04:31:27;;;;;;;56.42;53.63;;;;;;;22.89;47.16;101089.03;5034204;28;20034;-73
2022/09/07 04:33:53;;;;;;;57.55;54.58;;;;;;;22.87;47.49;101091.28;5033200;28;20033;-73
2022/09/07 04:36:20;;;;;;;54.42;51.63;;;;;;;22.85;47.00;101088.00;5048397;28;20060;-74
2022/09/07 04:38:46;;;;;;;54.10;51.40;;;;;;;22.84;47.27;101093.84;5052781;28;20093;-74
2022/09/07 04:41:16;;;;;;;55.45;52.50;;;;;;;22.82;47.71;101083.16;5045020;28;20028;-74
2022/09/07 04:43:42;;;;;;;54.88;52.08;;;;;;;22.80;47.24;101077.13;5045925;28;20112;-73
2022/09/07 04:46:14;;;;;;;54.97;52.20;;;;;;;22.78;47.45;101086.84;5050196;28;20051;-73
2022/09/07 04:48:39;;;;;;;56.78;53.83;;;;;;;22.77;47.22;101090.75;5052465;28;20116;-73
2022/09/07 04:51:06;;;;;;;58.15;55.25;;;;;;;22.75;47.65;101088.28;5039135;28;20181;-73
2022/09/07 04:53:33;;;;;;;56.38;53.38;;;;;;;22.74;47.37;101085.88;5033664;28;20053;-73
2022/09/07 04:55:58;;;;;;;57.83;54.63;;;;;;;22.72;47.33;101082.63;5031877;28;20045;-73
2022/09/07 04:58:24;;;;;;;56.30;53.40;;;;;;;22.69;47.45;101087.63;5015318;28;20501;-72
2022/09/07 05:00:49;;;;;;;53.45;50.75;;;;;;;22.69;47.47;101086.81;5031084;28;20116;-76
2022/09/07 05:03:14;;;;;;;55.97;52.97;;;;;;;22.67;47.09;101083.56;5032830;28;20056;-74
2022/09/07 05:05:40;;;;;;;55.08;52.20;;;;;;;22.65;47.37;101083.91;5014630;28;20044;-73
2022/09/07 05:08:06;;;;;;;56.28;53.30;;;;;;;22.64;47.16;101087.75;5040085;28;20041;-73
2022/09/07 05:10:31;;;;;;;55.03;52.15;;;;;;;22.62;47.00;101089.22;5066000;28;20463;-75
2022/09/07 05:12:57;;;;;;;56.58;53.28;;;;;;;22.59;47.23;101082.38;5034582;28;20064;-74
2022/09/07 05:15:22;;;;;;;55.03;52.03;;;;;;;22.57;47.50;101083.84;5031490;28;20041;-74
2022/09/07 05:17:48;;;;;;;53.63;50.72;;;;;;;22.56;47.56;101073.97;5024776;28;20029;-74
2022/09/07 05:20:14;;;;;;;55.88;52.88;;;;;;;22.55;47.64;101077.81;5067516;28;20463;-74
2022/09/07 05:22:39;;;;;;;56.38;53.13;;;;;;;22.53;47.82;101074.56;5034823;28;20112;-73
2022/09/07 05:25:06;;;;;;;54.08;51.17;;;;;;;22.51;47.63;101083.16;5043611;28;20040;-73
2022/09/07 05:27:32;;;;;;;55.22;51.70;;;;;;;22.48;47.41;101089.31;5057347;28;20037;-73
2022/09/07 05:29:57;;;;;;;53.78;50.78;;;;;;;22.46;47.36;101097.88;5051607;28;20392;-73
2022/09/07 05:32:22;;;;;;;53.83;51.03;;;;;;;22.45;47.36;101104.50;5052242;28;20124;-73
2022/09/07 05:34:49;;;;;;;57.38;53.85;;;;;;;22.44;47.56;101102.06;5051585;28;20119;-74
2022/09/07 05:37:15;;;;;;;54.05;51.28;;;;;;;22.42;47.74;101096.84;5036155;28;20060;-73
2022/09/07 05:39:41;;;;;;;55.10;52.15;;;;;;;22.40;48.13;101104.63;5038473;28;20116;-75
2022/09/07 05:42:06;;;;;;;59.10;55.85;;;;;;;22.40;47.79;101095.53;5046897;28;20412;-73
2022/09/07 05:44:31;;;;;;;55.85;52.75;;;;;;;22.38;47.66;101089.56;5034072;28;20109;-74
2022/09/07 05:46:57;;;;;;;55.50;52.33;;;;;;;22.36;47.74;101091.81;5031782;28;20044;-73
2022/09/07 05:49:22;;;;;;;54.90;51.90;;;;;;;22.35;47.68;101099.25;5031964;28;20061;-74
2022/09/07 05:51:48;;;;;;;55.08;51.78;;;;;;;22.34;48.09;101094.06;5054289;28;20497;-74
2022/09/07 05:54:13;;;;;;;59.03;55.47;;;;;;;22.32;47.71;101102.63;5050033;28;20072;-73
2022/09/07 05:56:39;;;;;;;54.40;51.13;;;;;;;22.30;48.07;101115.91;5050274;28;20515;-74
2022/09/07 05:59:04;;;;;;;53.42;50.38;;;;;;;22.29;47.80;101117.00;5041426;28;20533;-74
2022/09/07 06:01:30;;;;;;;54.80;51.70;;;;;;;22.27;48.16;101111.00;5050400;28;20041;-73
2022/09/07 06:03:56;;;;;;;54.60;51.58;;;;;;;22.26;48.04;101109.38;5041457;28;20039;-76
2022/09/07 06:06:22;;;;;;;54.35;51.35;;;;;;;22.24;47.94;101108.88;5051100;28;20029;-73
2022/09/07 06:08:49;;;;;;;54.67;51.67;;;;;;;22.23;48.07;101110.81;5041841;28;20094;-74
2022/09/07 06:11:18;;;;;;;53.85;50.25;;;;;;;22.20;47.72;101114.22;5031300;28;20034;-75
2022/09/07 06:13:44;;;;;;;56.17;52.60;;;;;;;22.20;47.96;101107.88;5051738;28;20033;-72
2022/09/07 06:16:11;;;;;;;56.67;53.38;;;;;;;22.18;48.30;101116.41;5050202;28;20032;-73
2022/09/07 06:18:39;;;;;;;53.55;50.20;;;;;;;22.18;47.95;101118.38;5065391;28;20029;-73
2022/09/07 06:21:06;;;;;;;59.05;55.55;;;;;;;22.16;48.37;101115.91;5044285;28;20056;-73
2022/09/07 06:23:33;;;;;;;54.50;51.38;;;;;;;22.14;48.36;101120.09;5040439;28;20029;-73
2022/09/07 06:25:58;;;;;;;57.95;54.55;;;;;;;22.13;48.25;101113.78;5044795;28;20076;-76
2022/09/07 06:28:35;;;;;;;54.38;51.28;;;;;;;22.12;48.34;101120.41;5047766;28;20409;-72
2022/09/07 06:31:06;;;;;;;54.20;51.17;;;;;;;22.11;48.43;101121.53;5043043;28;20033;-74
2022/09/07 06:33:33;;;;;;;58.08;54.45;;;;;;;22.10;48.41;101116.34;5044776;28;20493;-74
2022/09/07 06:36:04;;;;;;;56.28;53.13;;;;;;;22.08;48.59;101122.16;5046797;28;20107;-76
2022/09/07 06:38:31;;;;;;;57.53;54.22;;;;;;;22.07;48.69;101123.28;5046792;28;20455;-74
2022/09/07 06:41:02;;;;;;;55.83;52.58;;;;;;;22.06;48.44;101126.34;5046319;28;20040;-73
2022/09/07 06:43:27;;;;;;;55.40;52.10;;;;;;;22.03;48.36;101131.34;5045906;28;20043;-74
2022/09/07 06:45:53;;;;;;;59.08;55.13;;;;;;;22.03;48.85;101141.53;5045147;28;20025;-73
2022/09/07 06:48:19;;;;;;;59.72;56.03;;;;;;;22.03;48.71;101139.59;5045537;28;20706;-73
2022/09/07 06:50:57;;;;;;;62.53;58.33;;;;;;;22.02;49.34;101143.50;5045162;28;20041;-73
2022/09/07 06:53:23;;;;;;;56.07;52.17;;;;;;;22.01;48.62;101138.28;5044465;28;20056;-74
2022/09/07 06:55:49;;;;;;;58.42;54.45;;;;;;;21.99;48.54;101129.53;5046574;28;20033;-73
2022/09/07 06:58:14;;;;;;;58.22;54.55;;;;;;;21.98;48.94;101142.47;5046358;28;20154;-74
2022/09/07 07:00:39;;;;;;;60.10;55.58;;;;;;;21.98;48.72;101142.47;5046094;28;20041;-73
2022/09/07 07:03:05;;;;;;;59.70;55.33;;;;;;;21.97;48.94;101151.03;5045861;28;20112;-73
2022/09/07 07:05:30;;;;;;;59.05;55.10;;;;;;;21.95;49.02;101148.59;5044894;28;20064;-73
2022/09/07 07:07:56;;;;;;;60.88;56.90;;;;;;;21.95;48.82;101153.28;5046842;28;20116;-73
2022/09/07 07:10:22;;;;;;;61.55;57.45;;;;;;;21.94;48.84;101159.91;5029224;28;20036;-72
2022/09/07 07:12:47;;;;;;;58.42;54.20;;;;;;;21.94;49.22;101162.66;5046841;28;20040;-73
2022/09/07 07:15:13;;;;;;;59.67;55.67;;;;;;;21.93;49.23;101161.03;5045358;28;20041;-73
2022/09/07 07:17:38;;;;;;;61.17;56.85;;;;;;;21.93;48.93;101158.28;5051920;28;20029;-72
2022/09/07 07:20:05;;;;;;;60.45;56.40;;;;;;;21.92;49.35;101154.69;5050442;28;20041;-73
2022/09/07 07:22:30;;;;;;;59.28;55.10;;;;;;;21.93;49.72;101150.03;5032415;28;20037;-73
2022/09/07 07:24:55;;;;;;;56.75;53.10;;;;;;;21.92;49.49;101143.69;5047297;28;20053;-73
2022/09/07 07:27:21;;;;;;;59.17;55.28;;;;;;;21.93;49.67;101144.53;5050221;28;20402;-73
2022/09/07 07:29:46;;;;;;;57.38;53.88;;;;;;;21.92;49.68;101151.94;5052365;28;20040;-72
2022/09/07 07:32:12;;;;;;;61.42;57.10;;;;;;;21.92;49.73;101154.69;5034015;28;20063;-71
2022/09/07 07:34:56;;;;;;;60.78;56.75;;;;;;;21.94;50.44;101162.66;5049550;28;20055;-72
2022/09/07 07:37:21;;;;;;;59.75;55.67;;;;;;;21.93;49.85;101161.03;5048306;28;20037;-73
2022/09/07 07:39:49;;;;;;;58.08;54.28;;;;;;;21.93;49.68;101163.78;5031670;28;20126;-72
2022/09/07 07:42:15;;;;;;;57.22;53.38;;;;;;;21.94;50.02;101163.44;5049360;28;20040;-73
2022/09/07 07:44:40;;;;;;;62.90;58.38;;;;;;;21.94;49.83;101165.41;5051677;28;20029;-74
2022/09/07 07:47:06;;;;;;;59.17;54.90;;;;;;;21.95;50.05;101161.53;5049788;28;20029;-73
2022/09/07 07:49:31;;;;;;;58.67;54.67;;;;;;;21.95;49.93;101167.84;5047215;28;20041;-73
2022/09/07 07:51:56;;;;;;;58.03;53.92;;;;;;;21.96;50.48;101169.47;5049915;28;20370;-72
2022/09/07 07:54:22;;;;;;;59.10;54.80;;;;;;;21.98;50.78;101169.97;5051076;28;20816;-72
2022/09/07 07:56:47;;;;;;;57.90;54.03;;;;;;;21.98;50.48;101169.16;5032435;28;20401;-75
2022/09/07 07:59:13;;;;;;;58.53;54.28;;;;;;;22.00;50.68;101170.50;5017201;28;20040;-73
2022/09/07 08:01:38;;;;;;;57.58;53.78;;;;;;;22.02;50.84;101175.66;5015640;28;20029;-74
2022/09/07 08:04:04;;;;;;;63.03;58.28;;;;;;;22.05;51.00;101177.81;5046252;28;20447;-76
2022/09/07 08:06:29;;;;;;;58.78;54.45;;;;;;;22.07;51.38;101180.25;5015886;28;20039;-73
2022/09/07 08:08:55;;;;;;;60.72;56.60;;;;;;;22.09;51.13;101180.75;5045028;28;20034;-73
2022/09/07 08:11:21;;;;;;;62.00;57.60;;;;;;;22.11;50.90;101181.25;5031065;28;20128;-73
2022/09/07 08:13:49;;;;;;;58.13;53.85;;;;;;;22.14;51.59;101175.94;5049948;28;20432;-72
2022/09/07 08:16:16;;;;;;;59.45;55.28;;;;;;;22.16;51.58;101172.88;5048011;28;20045;-71
2022/09/07 08:18:42;;;;;;;60.00;55.63;;;;;;;22.17;51.43;101174.50;5048976;28;20522;-77
2022/09/07 08:21:12;;;;;;;61.65;57.45;;;;;;;22.20;51.49;101182.16;5047037;28;20090;-73
2022/09/07 08:23:38;;;;;;;57.45;53.67;;;;;;;22.23;51.48;101178.81;5046399;28;20029;-73
2022/09/07 08:26:04;;;;;;;56.15;52.65;;;;;;;22.25;51.30;101182.88;5048088;28;20071;-73
2022/09/07 08:28:34;;;;;;;57.15;53.00;;;;;;;22.29;51.20;101183.06;5047079;28;20033;-73
2022/09/07 08:31:03;;;;;;;54.33;50.88;;;;;;;22.32;51.24;101185.19;5047345;28;20037;-73
2022/09/07 08:33:29;;;;;;;55.88;52.35;;;;;;;22.36;50.86;101182.63;5048687;28;20033;-74
2022/09/07 08:35:59;;;;;;;61.10;57.05;;;;;;;22.40;51.38;101187.22;5045453;28;20064;-73
2022/09/07 08:38:25;;;;;;;58.40;54.83;;;;;;;22.45;51.22;101183.50;5048791;28;20029;-73
2022/09/07 08:40:51;;;;;;;59.75;55.95;;;;;;;22.50;51.62;101190.81;5046417;28;20107;-73
2022/09/07 08:43:29;;;;;;;61.67;57.67;;;;;;;22.55;51.72;101199.78;5047608;28;20025;-72
2022/09/07 08:46:02;;;;;;;61.78;57.70;;;;;;;22.58;50.93;101193.66;5045571;28;20384;-72
2022/09/07 08:48:32;;;;;;;60.38;55.97;;;;;;;22.62;51.76;101197.41;5043452;28;20131;-73
2022/09/07 08:51:22;;;;;;;57.95;54.15;;;;;;;22.66;51.61;101194.84;5047682;28;20025;-75
2022/09/07 08:53:48;;;;;;;55.75;52.38;;;;;;;22.69;51.22;101183.19;5027542;28;20580;-77
2022/09/07 08:56:22;;;;;;;57.40;53.70;;;;;;;22.72;51.49;101188.06;5043935;28;20052;-74
2022/09/07 08:58:52;;;;;;;56.47;53.08;;;;;;;22.77;51.28;101184.38;5047020;28;20046;-73
2022/09/07 09:01:21;;;;;;;59.05;55.65;;;;;;;22.79;50.84;101187.63;5047705;28;20543;-73
2022/09/07 09:03:47;;;;;;;56.13;52.65;;;;;;;22.82;51.05;101187.81;5049032;28;20054;-72
2022/09/07 09:06:51;;;;;;;57.55;54.25;;;;;;;22.86;50.90;101190.75;5046844;28;20033;-73
2022/09/07 09:09:34;;;;;;;56.97;53.72;;;;;;;22.89;50.99;101198.41;5044782;28;20040;-73
2022/09/07 09:12:32;;;;;;;55.83;52.50;;;;;;;22.90;50.85;101195.31;5043067;28;20034;-73
2022/09/07 09:15:09;;;;;;;55.00;51.88;;;;;;;22.94;50.42;101195.50;5044320;28;20440;-72
2022/09/07 09:17:58;;;;;;;55.72;52.25;;;;;;;22.97;50.71;101183.88;5048167;28;20508;-73
2022/09/07 09:20:38;;;;;;;54.70;51.60;;;;;;;23.00;50.31;101183.25;5046411;28;20053;-73
2022/09/07 09:23:12;;;;;;;54.85;51.67;;;;;;;23.05;50.76;101182.31;5048279;28;20045;-73
2022/09/07 09:25:44;;;;;;;59.97;56.17;;;;;;;23.07;50.71;101185.56;5045431;28;20122;-73
2022/09/07 09:28:13;;;;;;;56.58;52.97;;;;;;;23.11;50.40;101189.31;5046240;28;20040;-73
2022/09/07 09:30:38;;;;;;;54.33;51.45;;;;;;;23.15;50.68;101189.47;5048095;28;20056;-72
2022/09/07 09:33:21;;;;;;;54.95;52.13;;;;;;;23.18;50.47;101183.34;5043513;28;20479;-73
2022/09/07 09:35:49;;;;;;;54.90;52.17;;;;;;;23.20;50.39;101179.13;5046427;28;20463;-72
2022/09/07 09:38:43;;;;;;;;;;;;;;;23.23;50.31;101184.00;5044530;28;20034;-76
2022/09/07 09:41:12;;;;;;;54.78;51.55;;;;;;;23.26;50.28;101186.13;5043466;28;20531;-75
2022/09/07 09:43:45;;;;;;;;;;;;;;;23.29;50.13;101182.75;5041872;28;20477;-74
2022/09/07 09:46:21;;;;;;;57.92;53.63;;;;;;;23.32;50.40;101190.38;5047263;28;19999;-74
2022/09/07 09:49:15;;;;;;;55.15;52.20;;;;;;;23.36;50.47;101187.81;5046651;28;20131;-74
2022/09/07 09:51:44;;;;;;;58.10;54.55;;;;;;;23.39;50.44;101187.16;5042020;28;20029;-75
2022/09/07 09:54:31;;;;;;;55.47;52.15;;;;;;;23.42;50.36;101189.28;5046664;28;20488;-73
2022/09/07 09:56:57;;;;;;;56.95;53.80;;;;;;;23.44;50.22;101198.03;5046555;28;20487;-73
2022/09/07 09:59:28;;;;;;;55.92;52.83;;;;;;;23.49;50.02;101194.34;5045744;28;20075;-73
2022/09/07 10:01:55;;;;;;;59.25;56.28;;;;;;;23.52;50.22;101194.50;5061714;28;20381;-73
2022/09/07 10:04:23;;;;;;;58.33;54.97;;;;;;;23.55;49.93;101187.53;5046832;28;20030;-73
2022/09/07 10:06:50;;;;;;;56.83;53.63;;;;;;;23.59;50.07;101187.72;5046218;28;20086;-74
2022/09/07 10:09:19;;;;;;;57.70;54.55;;;;;;;23.62;50.11;101187.06;5042965;28;20045;-73
2022/09/07 10:11:47;;;;;;;58.25;55.00;;;;;;;23.63;50.11;101189.50;5047084;28;20029;-73
2022/09/07 10:14:32;;;;;;;60.30;57.10;;;;;;;23.68;50.02;101183.03;5041844;28;20056;-74
2022/09/07 10:16:59;;;;;;;58.88;55.75;;;;;;;23.70;50.08;101189.84;5076852;28;20028;-73
2022/09/07 10:19:36;;;;;;;60.75;57.42;;;;;;;23.73;50.04;101185.66;5045186;28;20374;-73
2022/09/07 10:22:19;;;;;;;59.80;56.73;;;;;;;23.75;50.06;101192.47;5045368;28;20037;-73
2022/09/07 10:24:45;;;;;;;62.22;58.95;;;;;;;23.79;49.83;101187.16;5044546;28;20114;-74
2022/09/07 10:27:36;;;;;;;58.42;55.20;;;;;;;23.83;49.54;101188.13;5047046;28;20498;-74
2022/09/07 10:30:08;;;;;;;58.63;55.42;;;;;;;23.86;49.54;101181.13;5045850;28;20381;-74
2022/09/07 10:32:42;;;;;;;57.72;54.50;;;;;;;23.89;49.58;101180.50;5059369;28;20448;-74
2022/09/07 10:35:24;;;;;;;59.75;56.33;;;;;;;23.92;49.88;101188.97;5044596;28;21138;-74
2022/09/07 10:38:25;;;;;;;58.38;55.17;;;;;;;23.94;49.30;101180.38;5044750;28;20396;-78
2022/09/07 10:41:06;;;;;;;56.95;53.97;;;;;;;23.98;49.40;101175.81;5002384;28;20505;-73
2022/09/07 10:43:44;;;;;;;59.03;55.97;;;;;;;24.02;49.88;101173.22;5045034;28;20036;-72
2022/09/07 10:46:15;;;;;;;61.15;57.92;;;;;;;24.04;49.22;101177.28;5043198;28;20033;-72
2022/09/07 10:48:57;;;;;;;62.15;58.72;;;;;;;24.07;49.31;101162.03;5046126;28;20029;-71
2022/09/07 10:51:57;;;;;;;60.92;57.58;;;;;;;24.09;49.19;101159.75;5044029;28;20265;-72
2022/09/07 10:54:31;;;;;;;60.03;56.83;;;;;;;24.12;49.02;101161.88;5047168;28;20036;-74
2022/09/07 10:57:14;;;;;;;64.72;61.47;;;;;;;24.15;49.24;101161.22;5041681;28;20059;-75
2022/09/07 10:59:42;;;;;;;61.15;57.55;;;;;;;24.16;49.27;101160.88;5043956;28;20041;-71
2022/09/07 11:02:08;;;;;;;59.05;56.00;;;;;;;24.20;49.22;101161.06;5044243;28;20451;-70
2022/09/07 11:04:33;;;;;;;60.03;57.13;;;;;;;24.23;48.76;101154.88;5045438;28;20029;-72
2022/09/07 11:07:41;;;;;;;61.85;58.40;;;;;;;24.26;49.09;101154.22;5044902;28;20112;-74
2022/09/07 11:10:15;;;;;;;64.03;61.00;;;;;;;24.28;48.52;101145.63;5039724;28;20134;-73
2022/09/07 11:12:44;;;;;;;61.53;58.40;;;;;;;24.31;48.38;101144.97;5044074;28;20044;-72
2022/09/07 11:15:12;;;;;;;58.78;55.58;;;;;;;24.33;48.69;101145.47;5043868;28;20033;-74
2022/09/07 11:17:51;;;;;;;60.53;57.00;;;;;;;24.35;48.43;101146.75;5042674;28;20254;-72
2022/09/07 11:20:31;;;;;;;58.15;55.05;;;;;;;24.36;48.60;101145.59;5042282;28;20025;-73
2022/09/07 11:23:23;;;;;;;60.45;57.13;;;;;;;24.37;48.16;101144.50;5040589;28;20033;-71
2022/09/07 11:26:15;;;;;;;56.17;53.38;;;;;;;24.39;48.65;101149.66;5027968;28;20057;-71